createdAt,value
2019-01-19T00:02:35.028Z,1.32
2019-01-19T00:05:51.658Z,1.22
2019-01-19T00:08:38.728Z,1.11
2019-01-19T00:11:44.759Z,1.07
2019-01-19T00:14:54.053Z,0.98
2019-01-19T00:18:02.996Z,0.59
2019-01-19T00:21:04.040Z,0.66
2019-01-19T00:24:05.207Z,0.80
2019-01-19T00:27:17.980Z,0.86
2019-01-19T00:30:11.156Z,0.68
2019-01-19T00:32:49.327Z,0.44
2019-01-19T00:35:46.258Z,0.32
2019-01-19T00:39:02.339Z,0.35
2019-01-19T00:42:15.793Z,0.23
2019-01-19T00:45:15.219Z,0.27
2019-01-19T00:47:55.766Z,0.31
2019-01-19T00:51:00.977Z,0.36
2019-01-19T00:53:43.075Z,0.37
2019-01-19T00:56:45.795Z,0.62
2019-01-19T00:59:22.217Z,0.82
2019-01-19T01:02:24.389Z,1.01
2019-01-19T01:05:17.068Z,1.12
2019-01-19T01:08:02.320Z,1.28
2019-01-19T01:11:06.877Z,1.36
2019-01-19T01:14:05.215Z,1.34
2019-01-19T01:17:05.028Z,1.37
2019-01-19T01:20:30.703Z,1.48
2019-01-19T01:23:25.889Z,1.45
2019-01-19T01:26:41.782Z,1.37
2019-01-19T01:29:55.439Z,1.50
2019-01-19T01:32:43.395Z,1.59
2019-01-19T01:35:55.554Z,1.63
2019-01-19T01:38:48.489Z,1.43
2019-01-19T01:41:52.172Z,1.35
2019-01-19T01:44:42.950Z,1.27
2019-01-19T01:47:38.302Z,1.10
2019-01-19T01:50:25.588Z,1.01
2019-01-19T01:53:54.086Z,0.80
2019-01-19T01:56:23.632Z,0.85
2019-01-19T01:59:14.458Z,0.70
2019-01-19T02:02:06.653Z,0.64
2019-01-19T02:05:26.044Z,0.58
2019-01-19T02:08:41.055Z,0.66
2019-01-19T02:11:38.631Z,0.54
2019-01-19T02:14:57.947Z,0.50
2019-01-19T02:18:16.533Z,0.53
2019-01-19T02:20:56.140Z,0.57
2019-01-19T02:24:12.200Z,0.60
2019-01-19T02:27:23.860Z,0.49
2019-01-19T02:30:23.316Z,0.67
2019-01-19T02:33:15.209Z,0.62
2019-01-19T02:36:07.852Z,0.58
2019-01-19T02:39:20.125Z,0.54
2019-01-19T02:42:18.182Z,0.57
2019-01-19T02:45:19.913Z,0.62
2019-01-19T02:48:25.125Z,0.71
2019-01-19T02:51:16.041Z,0.57
2019-01-19T02:54:20.891Z,0.75
2019-01-19T02:57:34.665Z,0.90
2019-01-19T03:00:44.866Z,0.67
2019-01-19T03:03:40.374Z,0.62
2019-01-19T03:06:33.048Z,0.69
2019-01-19T03:09:33.103Z,0.83
2019-01-19T03:12:29.863Z,0.87
2019-01-19T03:15:52.423Z,1.02
2019-01-19T03:18:39.422Z,1.22
2019-01-19T03:21:45.048Z,1.42
2019-01-19T03:24:34.855Z,1.40
2019-01-19T03:27:29.478Z,1.25
2019-01-19T03:30:38.504Z,1.26
2019-01-19T03:33:36.599Z,1.29
2019-01-19T03:36:43.007Z,1.34
2019-01-19T03:40:11.372Z,1.37
2019-01-19T03:43:12.758Z,1.29
2019-01-19T03:46:28.367Z,1.29
2019-01-19T03:49:30.328Z,1.39
2019-01-19T03:52:37.814Z,1.35
2019-01-19T03:55:44.692Z,1.36
2019-01-19T03:58:48.164Z,1.25
2019-01-19T04:02:14.403Z,1.27
2019-01-19T04:05:08.461Z,1.38
2019-01-19T04:08:07.551Z,1.36
2019-01-19T04:11:08.698Z,1.48
2019-01-19T04:14:10.022Z,1.48
2019-01-19T04:17:19.490Z,1.23
2019-01-19T04:20:24.120Z,1.26
2019-01-19T04:22:57.600Z,1.26
2019-01-19T04:25:51.078Z,1.07
2019-01-19T04:28:22.853Z,1.09
2019-01-19T04:30:52.265Z,1.00
2019-01-19T04:33:21.652Z,0.94
2019-01-19T04:35:51.025Z,0.85
2019-01-19T04:38:20.387Z,0.84
2019-01-19T04:40:49.798Z,0.85
2019-01-19T04:43:19.188Z,0.79
2019-01-19T04:45:48.559Z,0.68
2019-01-19T04:48:19.570Z,0.74
2019-01-19T04:50:48.957Z,0.83
2019-01-19T04:53:18.354Z,0.78
2019-01-19T04:55:47.710Z,0.64
2019-01-19T04:58:17.126Z,0.67
2019-01-19T05:00:46.547Z,0.71
2019-01-19T05:03:15.935Z,0.64
2019-01-19T05:05:45.278Z,0.59
2019-01-19T05:08:14.631Z,0.58
2019-01-19T05:10:43.995Z,0.52
2019-01-19T05:13:13.343Z,0.55
2019-01-19T05:15:42.715Z,0.58
2019-01-19T05:18:12.275Z,0.49
2019-01-19T05:20:41.629Z,0.58
2019-01-19T05:23:11.034Z,0.51
2019-01-19T05:25:40.409Z,0.43
2019-01-19T05:28:09.798Z,0.36
2019-01-19T05:30:39.174Z,0.32
2019-01-19T05:33:08.545Z,0.45
2019-01-19T05:35:39.940Z,0.47
2019-01-19T05:38:09.325Z,0.37
2019-01-19T05:40:38.656Z,0.35
2019-01-19T05:43:08.045Z,0.22
2019-01-19T05:45:37.409Z,0.12
2019-01-19T05:48:07.454Z,0.21
2019-01-19T05:50:36.803Z,0.06
2019-01-19T05:53:06.158Z,0.04
2019-01-19T05:55:35.512Z,-0.01
2019-01-19T05:58:04.898Z,0.07
2019-01-19T06:00:35.559Z,-0.05
2019-01-19T06:03:05.527Z,0.01
2019-01-19T06:05:34.886Z,0.02
2019-01-19T06:08:04.352Z,-0.01
2019-01-19T06:10:33.673Z,0.09
2019-01-19T06:13:03.085Z,0.09
2019-01-19T06:15:32.438Z,0.12
2019-01-19T06:18:01.841Z,0.09
2019-01-19T06:20:31.236Z,0.17
2019-01-19T06:23:00.686Z,0.26
2019-01-19T06:25:30.169Z,0.23
2019-01-19T06:27:59.639Z,0.32
2019-01-19T06:30:29.068Z,0.35
2019-01-19T06:32:58.479Z,0.41
2019-01-19T06:35:27.871Z,0.50
2019-01-19T06:37:57.254Z,0.58
2019-01-19T06:40:26.599Z,0.57
2019-01-19T06:42:55.964Z,0.71
2019-01-19T06:45:26.747Z,0.64
2019-01-19T06:47:56.069Z,0.64
2019-01-19T06:50:25.449Z,0.71
2019-01-19T06:52:54.825Z,0.67
2019-01-19T06:55:27.059Z,0.80
2019-01-19T06:57:57.339Z,0.81
2019-01-19T07:00:26.708Z,0.85
2019-01-19T07:02:56.144Z,0.85
2019-01-19T07:05:25.486Z,0.87
2019-01-19T07:07:54.892Z,0.79
2019-01-19T07:10:25.372Z,0.87
2019-01-19T07:12:54.737Z,0.86
2019-01-19T07:15:24.069Z,0.94
2019-01-19T07:17:53.546Z,0.93
2019-01-19T07:20:25.640Z,1.10
2019-01-19T07:22:55.038Z,1.17
2019-01-19T07:25:24.508Z,1.28
2019-01-19T07:27:53.842Z,1.28
2019-01-19T07:30:23.197Z,1.37
2019-01-19T07:32:52.518Z,1.37
2019-01-19T07:35:21.958Z,1.45
2019-01-19T07:37:51.435Z,1.40
2019-01-19T07:40:20.835Z,1.52
2019-01-19T07:42:54.129Z,1.47
2019-01-19T07:45:23.510Z,1.52
2019-01-19T07:47:52.902Z,1.55
2019-01-19T07:50:22.290Z,1.67
2019-01-19T07:52:51.653Z,1.65
2019-01-19T07:55:21.023Z,1.73
2019-01-19T07:57:50.451Z,1.70
2019-01-19T08:00:25.537Z,1.84
2019-01-19T08:02:55.139Z,1.86
2019-01-19T08:05:24.555Z,1.96
2019-01-19T08:07:53.934Z,2.02
2019-01-19T08:10:23.423Z,2.13
2019-01-19T08:12:52.905Z,2.14
2019-01-19T08:15:24.069Z,2.21
2019-01-19T08:17:53.584Z,2.37
2019-01-19T08:20:22.876Z,2.43
2019-01-19T08:22:52.334Z,2.41
2019-01-19T08:25:21.801Z,2.47
2019-01-19T08:27:53.501Z,2.56
2019-01-19T08:30:25.025Z,2.50
2019-01-19T08:32:54.553Z,2.63
2019-01-19T08:35:24.001Z,2.68
2019-01-19T08:37:53.372Z,2.73
2019-01-19T08:40:28.023Z,2.86
2019-01-19T08:43:19.413Z,2.73
2019-01-19T08:45:48.750Z,2.74
2019-01-19T08:48:20.546Z,2.83
2019-01-19T08:50:49.892Z,2.73
2019-01-19T08:53:19.338Z,2.76
2019-01-19T08:55:48.696Z,2.71
2019-01-19T08:58:18.412Z,2.89
2019-01-19T09:00:47.801Z,2.91
2019-01-19T09:03:17.327Z,3.03
2019-01-19T09:05:46.758Z,3.14
2019-01-19T09:08:16.135Z,3.26
2019-01-19T09:10:45.511Z,3.37
2019-01-19T09:13:14.855Z,3.34
2019-01-19T09:15:44.166Z,3.44
2019-01-19T09:18:13.540Z,3.39
2019-01-19T09:20:42.918Z,3.53
2019-01-19T09:23:17.868Z,3.47
2019-01-19T09:25:47.238Z,3.65
2019-01-19T09:28:16.742Z,3.73
2019-01-19T09:30:46.145Z,3.82
2019-01-19T09:33:15.523Z,3.99
2019-01-19T09:35:44.979Z,4.04
2019-01-19T09:38:14.344Z,4.08
2019-01-19T09:40:43.741Z,4.55
2019-01-19T09:43:13.075Z,5.12
2019-01-19T09:45:42.530Z,5.24
2019-01-19T09:48:11.884Z,5.38
2019-01-19T09:50:41.309Z,5.49
2019-01-19T09:53:10.691Z,5.33
2019-01-19T09:55:40.077Z,5.45
2019-01-19T09:58:09.690Z,5.28
2019-01-19T10:00:45.546Z,5.25
2019-01-19T10:03:10.259Z,5.12
2019-01-19T10:05:39.617Z,5.04
2019-01-19T10:08:08.962Z,5.30
2019-01-19T10:10:38.515Z,5.52
2019-01-19T10:13:07.902Z,5.45
2019-01-19T10:15:37.306Z,5.69
2019-01-19T10:18:06.703Z,5.70
2019-01-19T10:20:36.066Z,5.87
2019-01-19T10:23:05.477Z,6.17
2019-01-19T10:25:34.855Z,6.26
2019-01-19T10:28:07.784Z,6.33
2019-01-19T10:30:37.154Z,6.08
2019-01-19T10:33:07.774Z,6.09
2019-01-19T10:35:37.165Z,5.97
2019-01-19T10:38:06.518Z,5.78
2019-01-19T10:40:35.903Z,5.49
2019-01-19T10:43:05.881Z,5.48
2019-01-19T10:45:35.243Z,5.34
2019-01-19T10:48:07.234Z,5.37
2019-01-19T10:50:36.616Z,5.28
2019-01-19T10:53:06.146Z,5.32
2019-01-19T10:55:35.543Z,5.32
2019-01-19T10:58:04.934Z,5.28
2019-01-19T11:00:34.411Z,5.12
2019-01-19T11:03:04.040Z,5.27
2019-01-19T11:05:33.509Z,5.21
2019-01-19T11:08:04.243Z,5.31
2019-01-19T11:10:33.702Z,5.19
2019-01-19T11:13:03.068Z,5.45
2019-01-19T11:15:32.471Z,5.65
2019-01-19T11:18:01.870Z,6.12
2019-01-19T11:20:31.288Z,6.45
2019-01-19T11:23:01.266Z,6.61
2019-01-19T11:25:30.710Z,6.85
2019-01-19T11:28:00.087Z,6.85
2019-01-19T11:30:30.885Z,6.99
2019-01-19T11:33:00.636Z,6.91
2019-01-19T11:35:30.279Z,6.52
2019-01-19T11:37:59.710Z,6.47
2019-01-19T11:40:34.433Z,6.41
2019-01-19T11:43:03.912Z,6.37
2019-01-19T11:45:34.629Z,6.48
2019-01-19T11:48:04.133Z,6.39
2019-01-19T11:50:33.533Z,6.58
2019-01-19T11:53:02.899Z,6.65
2019-01-19T11:55:32.314Z,6.52
2019-01-19T11:58:03.561Z,6.73
2019-01-19T12:00:34.687Z,6.60
2019-01-19T12:03:04.550Z,6.48
2019-01-19T12:05:34.141Z,6.44
2019-01-19T12:08:03.600Z,6.17
2019-01-19T12:10:33.467Z,6.14
2019-01-19T12:13:02.855Z,6.10
2019-01-19T12:15:32.257Z,6.21
2019-01-19T12:18:01.732Z,5.99
2019-01-19T12:20:37.067Z,6.00
2019-01-19T12:23:06.733Z,6.04
2019-01-19T12:25:36.080Z,6.11
2019-01-19T12:28:05.594Z,6.18
2019-01-19T12:30:35.075Z,6.21
2019-01-19T12:33:04.695Z,6.34
2019-01-19T12:35:34.100Z,6.52
2019-01-19T12:38:03.613Z,6.51
2019-01-19T12:40:33.102Z,6.46
2019-01-19T12:43:08.674Z,6.62
2019-01-19T12:46:02.492Z,6.53
2019-01-19T12:48:31.949Z,6.67
2019-01-19T12:51:03.927Z,6.62
2019-01-19T12:53:33.295Z,6.48
2019-01-19T12:56:02.681Z,6.59
2019-01-19T12:58:32.050Z,6.59
2019-01-19T13:01:01.488Z,6.62
2019-01-19T13:03:30.904Z,6.62
2019-01-19T13:06:28.151Z,6.54
2019-01-19T13:08:57.522Z,6.36
2019-01-19T13:11:57.488Z,6.46
2019-01-19T13:14:27.189Z,6.48
2019-01-19T13:17:36.063Z,6.31
2019-01-19T13:20:31.574Z,6.20
2019-01-19T13:23:30.997Z,6.17
2019-01-19T13:26:15.877Z,6.15
2019-01-19T13:29:31.205Z,6.17
2019-01-19T13:32:44.853Z,6.09
2019-01-19T13:35:41.200Z,6.04
2019-01-19T13:38:41.752Z,6.06
2019-01-19T13:41:37.672Z,6.12
2019-01-19T13:45:06.413Z,6.04
2019-01-19T13:48:25.613Z,6.08
2019-01-19T13:51:35.858Z,6.07
2019-01-19T13:56:36.065Z,6.17
2019-01-19T13:59:41.454Z,6.16
2019-01-19T14:02:47.854Z,6.19
2019-01-19T14:05:42.445Z,6.15
2019-01-19T14:08:54.250Z,6.20
2019-01-19T14:11:56.366Z,6.27
2019-01-19T14:15:01.843Z,6.18
2019-01-19T14:17:55.955Z,6.18
2019-01-19T14:21:06.509Z,6.04
2019-01-19T14:24:05.831Z,6.16
2019-01-19T14:27:14.591Z,6.13
2019-01-19T14:30:19.603Z,6.01
2019-01-19T14:33:26.690Z,6.07
2019-01-19T14:36:20.269Z,6.00
2019-01-19T14:39:26.597Z,6.10
2019-01-19T14:42:56.248Z,6.13
2019-01-19T14:45:42.362Z,6.08
2019-01-19T14:48:45.005Z,5.94
2019-01-19T14:51:51.047Z,5.73
2019-01-19T14:55:22.528Z,5.55
2019-01-19T14:58:37.793Z,5.37
2019-01-19T15:03:50.043Z,5.37
2019-01-19T15:07:12.095Z,5.17
2019-01-19T15:10:12.491Z,5.13
2019-01-19T15:13:15.640Z,4.99
2019-01-19T15:16:50.094Z,5.00
2019-01-19T15:19:56.161Z,4.79
2019-01-19T15:22:55.342Z,4.64
2019-01-19T15:26:02.030Z,4.61
2019-01-19T15:29:00.600Z,4.54
2019-01-19T15:32:19.965Z,4.51
2019-01-19T15:38:12.296Z,4.38
2019-01-19T15:41:31.780Z,4.36
2019-01-19T15:44:51.315Z,4.38
2019-01-19T15:48:16.753Z,4.31
2019-01-19T15:51:39.095Z,4.21
2019-01-19T15:54:49.540Z,4.04
2019-01-19T15:57:45.849Z,3.87
2019-01-19T16:00:32.456Z,3.91
2019-01-19T16:03:13.730Z,3.85
2019-01-19T16:06:20.575Z,3.94
2019-01-19T16:09:24.683Z,3.85
2019-01-19T16:12:47.115Z,3.97
2019-01-19T16:16:03.450Z,4.09
2019-01-19T16:19:13.518Z,4.16
2019-01-19T16:22:04.253Z,4.17
2019-01-19T16:25:12.654Z,4.16
2019-01-19T16:28:00.539Z,4.06
2019-01-19T16:31:29.239Z,4.15
2019-01-19T16:34:48.352Z,4.23
2019-01-19T16:37:24.904Z,4.28
2019-01-19T16:40:29.897Z,4.30
2019-01-19T16:43:39.241Z,4.33
2019-01-19T16:46:51.261Z,4.55
2019-01-19T16:50:04.598Z,4.60
2019-01-19T16:53:09.692Z,4.64
2019-01-19T16:56:10.765Z,4.72
2019-01-19T16:59:20.081Z,4.80
2019-01-19T17:02:30.125Z,4.83
2019-01-19T17:05:26.651Z,4.91
2019-01-19T17:08:07.112Z,4.93
2019-01-19T17:11:05.350Z,4.90
2019-01-19T17:15:12.263Z,5.10
2019-01-19T17:18:13.452Z,5.15
2019-01-19T17:21:01.588Z,5.10
2019-01-19T17:24:06.076Z,5.16
2019-01-19T17:27:06.309Z,5.17
2019-01-19T17:30:17.371Z,5.17
2019-01-19T17:33:33.554Z,5.04
2019-01-19T17:36:33.876Z,4.99
2019-01-19T17:39:47.085Z,4.93
2019-01-19T17:42:28.198Z,4.84
2019-01-19T17:45:23.931Z,4.78
2019-01-19T17:48:29.161Z,4.69
2019-01-19T17:51:49.062Z,4.66
2019-01-19T17:55:01.230Z,4.64
2019-01-19T17:58:06.672Z,4.57
2019-01-19T18:01:17.985Z,4.55
2019-01-19T18:04:14.875Z,4.55
2019-01-19T18:07:23.940Z,4.47
2019-01-19T18:10:23.059Z,4.46
2019-01-19T18:13:27.137Z,4.51
2019-01-19T18:16:33.497Z,4.52
2019-01-19T18:19:29.841Z,4.59
2019-01-19T18:22:41.292Z,4.54
2019-01-19T18:26:02.587Z,4.44
2019-01-19T18:29:03.120Z,4.49
2019-01-19T18:32:10.028Z,4.49
2019-01-19T18:35:14.508Z,4.53
2019-01-19T18:38:25.021Z,4.56
2019-01-19T18:41:09.367Z,4.58
2019-01-19T18:44:11.008Z,4.57
2019-01-19T18:47:02.735Z,4.63
2019-01-19T18:50:28.306Z,4.56
2019-01-19T18:53:29.717Z,4.48
2019-01-19T18:56:34.422Z,4.49
2019-01-19T18:59:28.093Z,4.57
2019-01-19T19:02:49.188Z,4.48
2019-01-19T19:06:02.028Z,4.28
2019-01-19T19:09:02.184Z,4.33
2019-01-19T19:12:06.750Z,4.29
2019-01-19T19:15:10.917Z,4.23
2019-01-19T19:18:09.761Z,4.18
2019-01-19T19:21:23.194Z,3.98
2019-01-19T19:24:37.612Z,4.04
2019-01-19T19:27:36.493Z,4.09
2019-01-19T19:30:36.276Z,4.02
2019-01-19T19:33:37.186Z,3.92
2019-01-19T19:36:36.022Z,3.85
2019-01-19T19:39:52.538Z,3.86
2019-01-19T19:43:06.191Z,4.00
2019-01-19T19:45:56.855Z,4.03
2019-01-19T19:48:52.401Z,3.92
2019-01-19T19:51:58.555Z,3.76
2019-01-19T19:54:29.289Z,3.81
2019-01-19T19:56:59.293Z,3.90
2019-01-19T19:59:28.721Z,3.88
2019-01-19T20:01:58.098Z,3.90
2019-01-19T20:04:27.822Z,3.68
2019-01-19T20:06:57.723Z,3.70
2019-01-19T20:09:27.318Z,3.63
2019-01-19T20:12:05.821Z,3.63
2019-01-19T20:14:35.352Z,3.52
2019-01-19T20:17:04.962Z,3.53
2019-01-19T20:19:34.418Z,3.59
2019-01-19T20:22:06.598Z,3.51
2019-01-19T20:24:35.997Z,3.51
2019-01-19T20:27:06.470Z,3.50
2019-01-19T20:29:35.882Z,3.56
2019-01-19T20:32:05.518Z,3.55
2019-01-19T20:34:34.933Z,3.60
2019-01-19T20:37:04.442Z,3.56
2019-01-19T20:39:34.647Z,3.50
2019-01-19T20:42:04.000Z,3.52
2019-01-19T20:44:33.429Z,3.56
2019-01-19T20:47:02.930Z,3.53
2019-01-19T20:49:32.309Z,3.57
2019-01-19T20:52:01.691Z,3.60
2019-01-19T20:54:31.089Z,3.57
2019-01-19T20:57:00.453Z,3.53
2019-01-19T20:59:29.877Z,3.65
2019-01-19T21:01:59.352Z,3.58
2019-01-19T21:04:28.772Z,3.58
2019-01-19T21:06:58.225Z,3.56
2019-01-19T21:09:27.733Z,3.47
2019-01-19T21:11:57.159Z,3.47
2019-01-19T21:14:26.584Z,3.48
2019-01-19T21:16:58.966Z,3.58
2019-01-19T21:19:29.402Z,3.50
2019-01-19T21:21:58.776Z,3.59
2019-01-19T21:24:28.289Z,3.66
2019-01-19T21:26:57.813Z,3.77
2019-01-19T21:29:27.191Z,3.62
2019-01-19T21:31:56.550Z,3.71
2019-01-19T21:34:26.438Z,3.81
2019-01-19T21:36:55.866Z,3.82
2019-01-19T21:39:25.272Z,3.90
2019-01-19T21:41:54.617Z,3.83
2019-01-19T21:44:24.008Z,3.90
2019-01-19T21:46:53.439Z,3.96
2019-01-19T21:49:22.814Z,4.01
2019-01-19T21:51:52.202Z,4.01
2019-01-19T21:54:21.631Z,3.96
2019-01-19T21:56:51.076Z,3.99
2019-01-19T21:59:20.512Z,3.84
2019-01-19T22:01:49.912Z,3.95
2019-01-19T22:04:19.354Z,3.85
2019-01-19T22:06:48.845Z,3.90
2019-01-19T22:09:18.200Z,3.96
2019-01-19T22:11:47.604Z,3.95
2019-01-19T22:14:17.024Z,3.72
2019-01-19T22:16:46.451Z,3.90
2019-01-19T22:19:15.858Z,3.87
2019-01-19T22:21:45.310Z,3.83
2019-01-19T22:24:14.651Z,3.79
2019-01-19T22:26:45.564Z,3.79
2019-01-19T22:29:14.969Z,3.68
2019-01-19T22:31:44.357Z,3.71
2019-01-19T22:34:13.771Z,3.70
2019-01-19T22:36:43.150Z,3.63
2019-01-19T22:39:12.534Z,3.60
2019-01-19T22:41:41.944Z,3.60
2019-01-19T22:44:11.339Z,3.64
2019-01-19T22:46:40.740Z,3.67
2019-01-19T22:49:10.198Z,3.78
2019-01-19T22:51:39.646Z,3.76
2019-01-19T22:54:09.149Z,3.66
2019-01-19T22:56:38.540Z,3.68
2019-01-19T22:59:07.901Z,3.68
2019-01-19T23:01:48.615Z,3.67
2019-01-19T23:04:17.965Z,3.76
2019-01-19T23:06:47.337Z,3.78
2019-01-19T23:09:16.666Z,3.71
2019-01-19T23:11:46.005Z,3.59
2019-01-19T23:16:28.117Z,3.57
2019-01-19T23:18:57.435Z,3.56
2019-01-19T23:21:26.764Z,3.56
2019-01-19T23:23:56.120Z,3.41
2019-01-19T23:26:26.872Z,3.30
2019-01-19T23:28:56.260Z,3.21
2019-01-19T23:31:28.482Z,3.37
2019-01-19T23:33:57.855Z,3.38
2019-01-19T23:36:28.427Z,3.32
2019-01-19T23:38:57.860Z,3.30
2019-01-19T23:41:27.220Z,3.33
2019-01-19T23:43:56.687Z,3.35
2019-01-19T23:46:26.622Z,3.38
2019-01-19T23:48:56.019Z,3.44
2019-01-19T23:51:26.446Z,3.39
2019-01-19T23:53:55.793Z,3.36
2019-01-19T23:56:25.156Z,3.40
2019-01-19T23:58:54.517Z,3.42
